Time;durP1;ratioP1;P1;durP2;ratioP2;P2;SDS_P1;SDS_P2;PMS_P1;PMS_P2;Temp;Humidity;BMP_temperature;BMP_pressure;BME280_temperature;BME280_humidity;BME280_pressure;Samples;Min_cycle;Max_cycle;Signal;HPM_P1;HPM_P2
2021/05/06 00:34:15;;;;;;;3.17;1.40;;;22.00;44.10;;;;;;10623966;27;20206;-16
2021/05/06 00:39:40;;;;;;;2.20;1.40;;;22.00;44.10;;;;;;10623784;27;20259;-15
2021/05/06 00:56:49;;;;;;;2.50;1.10;;;21.90;44.10;;;;;;10600540;27;20202;-15
2021/05/06 01:02:44;;;;;;;2.20;1.10;;;22.00;44.20;;;;;;10582464;27;20187;-15
2021/05/06 01:08:11;;;;;;;2.20;1.10;;;22.00;43.90;;;;;;10581721;27;20220;-17
2021/05/06 01:13:35;;;;;;;2.07;1.00;;;21.90;44.00;;;;;;10580362;28;20222;-15
2021/05/06 01:18:56;;;;;;;3.23;1.40;;;21.90;44.10;;;;;;10622878;27;20277;-15
2021/05/06 01:24:19;;;;;;;2.83;1.07;;;21.90;44.10;;;;;;10621553;27;20281;-15
2021/05/06 01:29:45;;;;;;;2.73;1.17;;;21.90;44.00;;;;;;10621973;27;20204;-15
2021/05/06 01:35:10;;;;;;;2.87;1.03;;;21.80;44.00;;;;;;10619463;27;20209;-19
2021/05/06 01:40:56;;;;;;;2.60;0.97;;;21.80;44.10;;;;;;10622467;27;20218;-15
2021/05/06 01:57:58;;;;;;;2.70;1.10;;;21.90;44.00;;;;;;10586013;27;20625;-14
2021/05/06 02:03:20;;;;;;;3.47;1.10;;;21.80;44.00;;;;;;10578929;28;20183;-14
2021/05/06 02:08:42;;;;;;;2.60;1.43;;;21.90;43.80;;;;;;10578253;28;20551;-15
2021/05/06 02:14:06;;;;;;;2.57;0.97;;;21.80;43.90;;;;;;10578566;28;20215;-15
2021/05/06 02:19:31;;;;;;;1.60;1.00;;;21.80;43.90;;;;;;10577171;28;20578;-15
2021/05/06 02:24:53;;;;;;;1.40;0.70;;;21.80;44.00;;;;;;10577046;28;20245;-16
2021/05/06 02:30:16;;;;;;;2.07;1.17;;;21.90;43.90;;;;;;10578370;28;20198;-15
2021/05/06 02:35:39;;;;;;;2.60;1.10;;;21.90;43.70;;;;;;10578598;28;20218;-14
2021/05/06 02:41:01;;;;;;;2.80;1.03;;;21.80;43.80;;;;;;10620003;27;20628;-15
2021/05/06 02:46:25;;;;;;;2.97;1.10;;;21.80;43.90;;;;;;10608259;27;20214;-15
2021/05/06 02:51:50;;;;;;;3.03;1.10;;;21.90;43.80;;;;;;10621666;27;20245;-14
2021/05/06 02:57:19;;;;;;;2.73;0.90;;;21.90;43.70;;;;;;10593990;27;20218;-15
2021/05/06 03:02:51;;;;;;;1.87;1.10;;;21.80;43.80;;;;;;10576509;28;20272;-14
2021/05/06 03:08:15;;;;;;;3.13;1.20;;;21.80;43.90;;;;;;10581662;27;20221;-15
2021/05/06 03:25:07;;;;;;;2.47;0.80;;;21.80;43.80;;;;;;10570967;28;20203;-16
2021/05/06 03:31:03;;;;;;;2.03;0.80;;;21.80;43.90;;;;;;10568158;28;20203;-14
2021/05/06 03:42:08;;;;;;;1.63;0.90;;;21.90;43.70;;;;;;10574672;28;20557;-15
2021/05/06 04:21:58;;;;;;;1.40;0.80;;;22.10;42.80;;;;;;10463056;28;20197;-14
2021/05/06 04:27:22;;;;;;;2.57;0.90;;;22.20;42.90;;;;;;10470686;28;20217;-14
2021/05/06 04:38:23;;;;;;;2.50;0.73;;;22.30;42.70;;;;;;10469822;28;20235;-12
2021/05/06 04:55:24;;;;;;;1.97;0.90;;;22.40;42.50;;;;;;10431039;28;20684;-15
2021/05/06 05:06:32;;;;;;;2.90;0.93;;;22.40;42.50;;;;;;10423039;28;20293;-15
2021/05/06 05:11:56;;;;;;;1.87;0.97;;;22.40;42.50;;;;;;10424394;28;20252;-18
2021/05/06 05:17:43;;;;;;;2.70;0.90;;;22.40;42.50;;;;;;10464642;28;20224;-15
2021/05/06 05:23:29;;;;;;;1.73;0.90;;;22.40;42.40;;;;;;10504825;28;20203;-13
2021/05/06 05:28:50;;;;;;;2.77;1.17;;;22.50;42.20;;;;;;10507494;28;20270;-14
2021/05/06 05:34:24;;;;;;;3.73;1.37;;;22.50;42.30;;;;;;10506852;28;20227;-15
2021/05/06 05:39:59;;;;;;;2.93;0.80;;;22.50;42.40;;;;;;10501817;28;20219;-17
2021/05/06 05:45:44;;;;;;;2.13;0.90;;;22.40;42.50;;;;;;10483019;28;20647;-18
2021/05/06 05:56:46;;;;;;;3.40;0.90;;;22.40;42.40;;;;;;10467199;28;20217;-17
2021/05/06 06:02:09;;;;;;;1.77;0.90;;;22.40;42.60;;;;;;10465390;28;20626;-17
2021/05/06 06:07:31;;;;;;;1.83;0.90;;;22.50;42.30;;;;;;10464414;28;20216;-18
2021/05/06 06:12:53;;;;;;;2.50;1.00;;;22.50;42.40;;;;;;10459866;28;20228;-14
2021/05/06 06:18:20;;;;;;;3.43;1.33;;;22.40;41.00;;;;;;10455796;28;20639;-16
2021/05/06 06:23:42;;;;;;;3.50;1.30;;;22.00;35.90;;;;;;10465838;28;20200;-17
2021/05/06 06:29:07;;;;;;;3.47;1.40;;;21.80;35.10;;;;;;10449615;28;20198;-13
2021/05/06 06:34:29;;;;;;;4.20;1.37;;;21.70;34.70;;;;;;10436102;28;20221;-15
2021/05/06 06:39:51;;;;;;;3.03;1.40;;;21.70;34.50;;;;;;10449602;28;20196;-18
2021/05/06 06:45:13;;;;;;;3.70;1.33;;;21.70;34.60;;;;;;10471511;28;20220;-18
2021/05/06 06:50:35;;;;;;;2.97;1.20;;;21.80;34.10;;;;;;10495140;28;20201;-15
2021/05/06 06:55:58;;;;;;;3.10;1.20;;;21.70;34.10;;;;;;10478313;28;20216;-17
2021/05/06 07:01:20;;;;;;;2.87;1.10;;;21.70;34.10;;;;;;10441411;28;20194;-16
2021/05/06 07:06:41;;;;;;;3.87;1.30;;;21.90;34.60;;;;;;10434833;28;20647;-16
2021/05/06 07:12:05;;;;;;;2.27;1.10;;;21.80;33.90;;;;;;10469427;28;20209;-16
2021/05/06 07:17:26;;;;;;;3.20;1.03;;;21.80;34.00;;;;;;10470134;28;20213;-17
2021/05/06 07:22:48;;;;;;;4.57;1.30;;;21.80;33.60;;;;;;10465925;28;20223;-15
2021/05/06 07:28:12;;;;;;;3.70;1.27;;;21.80;33.70;;;;;;10496745;28;20588;-18
2021/05/06 07:33:35;;;;;;;2.83;1.03;;;21.90;34.00;;;;;;10459914;28;20224;-15
2021/05/06 07:38:56;;;;;;;2.80;1.13;;;21.90;34.40;;;;;;10472799;28;20197;-17
2021/05/06 07:44:19;;;;;;;2.97;1.00;;;22.00;34.60;;;;;;10460503;28;20221;-16
2021/05/06 07:49:41;;;;;;;3.77;1.43;;;22.10;34.20;;;;;;10430843;28;20278;-17
2021/05/06 07:55:03;;;;;;;2.83;1.30;;;22.00;33.40;;;;;;10436875;28;20280;-16
2021/05/06 08:00:27;;;;;;;4.20;1.27;;;22.10;34.40;;;;;;10470312;28;20209;-16
2021/05/06 08:05:49;;;;;;;5.57;1.33;;;22.10;35.20;;;;;;10427421;28;20305;-18
2021/05/06 08:11:11;;;;;;;3.13;1.10;;;22.10;33.90;;;;;;10430641;28;20312;-15
2021/05/06 08:16:33;;;;;;;1.70;0.90;;;22.10;33.80;;;;;;10473852;28;20221;-19
2021/05/06 08:21:55;;;;;;;3.03;1.07;;;22.10;34.80;;;;;;10473184;28;20185;-15
2021/05/06 08:27:17;;;;;;;3.30;0.97;;;22.10;34.00;;;;;;10481043;28;20216;-19
2021/05/06 08:32:39;;;;;;;4.00;1.30;;;22.00;33.60;;;;;;10482829;28;20208;-15
2021/05/06 08:38:01;;;;;;;3.50;1.10;;;22.20;35.20;;;;;;10472943;28;20244;-14
2021/05/06 08:43:26;;;;;;;2.63;0.90;;;22.20;35.70;;;;;;10472389;28;20672;-15
2021/05/06 08:48:49;;;;;;;3.90;1.10;;;22.20;33.80;;;;;;10473360;28;20205;-17
2021/05/06 08:54:11;;;;;;;3.43;1.00;;;22.10;33.90;;;;;;10456927;28;20221;-16
2021/05/06 08:59:32;;;;;;;2.83;1.10;;;22.20;35.40;;;;;;10445341;28;20204;-15
2021/05/06 09:04:55;;;;;;;3.30;1.17;;;22.20;34.00;;;;;;10469011;28;20684;-19
2021/05/06 09:10:34;;;;;;;4.03;1.30;;;22.20;35.40;;;;;;10459437;28;20193;-16
2021/05/06 09:15:57;;;;;;;1.87;0.80;;;22.30;33.90;;;;;;10461341;28;20681;-15
2021/05/06 09:21:30;;;;;;;3.67;0.97;;;22.30;35.40;;;;;;10461531;28;20196;-14
2021/05/06 09:26:54;;;;;;;3.10;1.10;;;22.30;36.10;;;;;;10463580;28;20228;-17
2021/05/06 09:32:19;;;;;;;1.70;0.70;;;22.20;36.00;;;;;;10456430;28;20225;-17
2021/05/06 09:37:44;;;;;;;3.07;1.00;;;22.30;36.00;;;;;;10471423;28;20220;-15
2021/05/06 09:43:21;;;;;;;2.67;0.90;;;22.40;33.70;;;;;;10474473;28;20196;-15
2021/05/06 09:48:43;;;;;;;5.87;0.93;;;22.40;33.90;;;;;;10442488;28;20212;-18
2021/05/06 09:54:07;;;;;;;3.17;1.03;;;22.40;34.60;;;;;;10484386;22;20224;-15
2021/05/06 09:59:31;;;;;;;3.37;1.53;;;22.50;35.30;;;;;;10449017;28;20204;-15
2021/05/06 10:05:06;;;;;;;4.63;1.23;;;22.40;35.10;;;;;;10452727;28;20213;-15
2021/05/06 10:10:29;;;;;;;2.37;0.73;;;22.40;34.80;;;;;;10429901;28;20216;-15
2021/05/06 10:15:52;;;;;;;2.47;0.83;;;22.40;34.50;;;;;;10436050;28;20750;-16
2021/05/06 10:21:16;;;;;;;4.50;1.10;;;22.30;34.80;;;;;;10422771;28;20213;-15
2021/05/06 10:26:40;;;;;;;3.07;0.90;;;22.30;33.80;;;;;;10447165;28;20227;-14
2021/05/06 10:32:02;;;;;;;4.20;1.03;;;22.30;34.60;;;;;;10434903;28;20292;-15
2021/05/06 10:37:25;;;;;;;3.97;1.33;;;22.40;33.50;;;;;;10433217;28;20205;-15
2021/05/06 10:42:48;;;;;;;3.40;1.30;;;22.30;32.10;;;;;;10431093;28;20213;-15
2021/05/06 10:48:10;;;;;;;2.93;1.40;;;22.20;32.10;;;;;;10406041;28;20198;-15
2021/05/06 10:53:32;;;;;;;3.03;1.40;;;22.40;34.60;;;;;;10403488;28;20302;-15
2021/05/06 10:58:54;;;;;;;5.43;1.30;;;22.40;35.00;;;;;;10434332;28;20197;-16
2021/05/06 11:04:16;;;;;;;5.50;1.60;;;22.40;34.20;;;;;;10424756;28;20216;-15
2021/05/06 11:10:01;;;;;;;6.13;2.10;;;22.40;36.00;;;;;;10441734;28;20193;-16
2021/05/06 11:15:29;;;;;;;6.93;2.30;;;22.50;37.20;;;;;;10447516;28;20459;-15
2021/05/06 11:20:52;;;;;;;8.47;1.97;;;23.10;36.80;;;;;;10441316;28;20194;-15
2021/05/06 11:26:16;;;;;;;7.47;2.33;;;22.70;38.20;;;;;;10409470;28;20221;-14
2021/05/06 11:31:49;;;;;;;5.53;2.10;;;22.70;38.80;;;;;;10420458;28;20638;-14
2021/05/06 11:37:29;;;;;;;6.60;2.33;;;22.70;39.00;;;;;;10441194;28;20198;-15
2021/05/06 11:42:51;;;;;;;4.30;1.87;;;22.70;39.20;;;;;;10406733;28;20214;-15
2021/05/06 11:48:15;;;;;;;5.83;2.10;;;22.70;39.50;;;;;;10440534;28;20198;-16
2021/05/06 11:53:38;;;;;;;6.90;2.30;;;22.80;39.60;;;;;;10409322;28;20297;-15
2021/05/06 11:59:00;;;;;;;4.73;2.20;;;22.80;39.70;;;;;;10435702;28;20580;-15
2021/05/06 12:04:24;;;;;;;6.37;2.37;;;22.80;39.80;;;;;;10435926;28;20213;-15
2021/05/06 12:09:46;;;;;;;5.53;2.40;;;22.90;39.80;;;;;;10420916;28;20197;-15
2021/05/06 12:15:09;;;;;;;4.77;2.17;;;22.90;39.90;;;;;;10450090;28;20274;-14
2021/05/06 12:20:56;;;;;;;5.50;2.27;;;22.90;40.00;;;;;;10453482;28;20251;-15
2021/05/06 12:26:20;;;;;;;5.30;2.07;;;23.00;39.90;;;;;;10448029;28;20217;-15
2021/05/06 12:31:46;;;;;;;5.00;1.93;;;22.90;40.00;;;;;;10415411;28;20486;-14
2021/05/06 12:37:09;;;;;;;5.03;2.23;;;22.90;40.10;;;;;;10415118;28;20193;-16
2021/05/06 12:42:33;;;;;;;5.23;2.23;;;23.00;40.30;;;;;;10428312;28;20217;-15
2021/05/06 12:47:54;;;;;;;4.53;2.10;;;23.00;40.20;;;;;;10415397;28;20202;-15
2021/05/06 12:53:19;;;;;;;4.40;1.93;;;23.10;40.10;;;;;;10414336;28;20221;-14
2021/05/06 12:58:40;;;;;;;4.17;1.70;;;23.10;40.10;;;;;;10451319;28;20193;-14
2021/05/06 13:04:02;;;;;;;3.17;1.53;;;23.10;40.20;;;;;;10456286;28;20220;-14
2021/05/06 13:09:25;;;;;;;3.93;1.50;;;23.20;40.90;;;;;;10437395;28;20197;-14
2021/05/06 13:14:48;;;;;;;4.53;2.00;;;23.00;40.50;;;;;;10448826;28;20228;-15
2021/05/06 13:20:19;;;;;;;4.47;1.87;;;22.90;40.90;;;;;;10455073;28;20197;-14
2021/05/06 13:25:44;;;;;;;5.43;1.60;;;23.10;40.70;;;;;;10446668;28;20252;-14
2021/05/06 13:31:08;;;;;;;3.73;1.87;;;22.90;41.00;;;;;;10434179;28;20668;-14
2021/05/06 13:36:29;;;;;;;5.17;1.47;;;22.80;41.80;;;;;;10427868;28;20221;-15
2021/05/06 13:41:52;;;;;;;4.03;1.60;;;22.80;40.70;;;;;;10448841;28;20635;-15
2021/05/06 13:47:14;;;;;;;2.67;1.40;;;22.70;41.00;;;;;;10448374;28;20541;-15
2021/05/06 13:52:35;;;;;;;4.13;1.53;;;22.60;41.30;;;;;;10446622;28;20229;-14
2021/05/06 13:57:58;;;;;;;2.70;1.27;;;22.40;41.40;;;;;;10439373;28;20235;-15
2021/05/06 14:03:19;;;;;;;2.33;1.20;;;22.20;41.80;;;;;;10447096;28;20220;-15
2021/05/06 14:08:41;;;;;;;2.90;1.17;;;22.20;41.90;;;;;;10446803;28;20204;-15
2021/05/06 14:14:04;;;;;;;2.83;1.20;;;22.30;41.80;;;;;;10431781;28;20570;-14
2021/05/06 14:19:26;;;;;;;2.13;1.30;;;22.50;41.50;;;;;;10438973;28;20200;-15
2021/05/06 14:24:47;;;;;;;4.53;1.03;;;22.50;41.30;;;;;;10445010;28;20228;-15
2021/05/06 14:30:11;;;;;;;3.73;1.30;;;22.40;41.60;;;;;;10413181;28;20256;-15
2021/05/06 14:35:34;;;;;;;3.80;1.27;;;22.50;41.40;;;;;;10405207;28;20225;-14
2021/05/06 14:40:55;;;;;;;1.30;0.90;;;22.40;41.40;;;;;;10403362;28;20301;-15
2021/05/06 14:46:21;;;;;;;3.27;1.20;;;22.30;41.50;;;;;;10403815;28;20217;-14
2021/05/06 14:51:43;;;;;;;1.90;1.00;;;22.30;41.50;;;;;;10404803;28;20276;-15
2021/05/06 14:57:05;;;;;;;1.63;1.00;;;22.40;41.50;;;;;;10426459;28;20205;-14
2021/05/06 15:02:27;;;;;;;4.60;1.40;;;22.50;41.30;;;;;;10444575;28;20760;-14
2021/05/06 15:07:49;;;;;;;1.30;0.87;;;22.30;41.60;;;;;;10445581;28;20212;-15
2021/05/06 15:13:11;;;;;;;2.33;0.90;;;22.30;41.90;;;;;;10400771;28;20221;-15
2021/05/06 15:18:33;;;;;;;2.93;1.30;;;22.40;41.70;;;;;;10410086;28;20201;-14
2021/05/06 15:23:55;;;;;;;2.43;0.90;;;22.50;41.60;;;;;;10434909;28;20212;-15
2021/05/06 15:29:16;;;;;;;1.47;0.87;;;22.40;41.90;;;;;;10433576;28;20558;-14
2021/05/06 15:34:40;;;;;;;2.30;0.80;;;22.20;42.20;;;;;;10443693;28;20216;-14
2021/05/06 15:40:01;;;;;;;1.83;0.90;;;22.30;42.00;;;;;;10418823;28;20205;-15
2021/05/06 15:45:23;;;;;;;1.30;0.90;;;22.30;42.10;;;;;;10404134;28;20217;-13
2021/05/06 15:50:45;;;;;;;2.93;1.00;;;22.10;42.30;;;;;;10418939;28;20193;-14
2021/05/06 15:56:07;;;;;;;1.63;1.00;;;22.10;42.70;;;;;;10435595;28;20624;-15
2021/05/06 16:01:29;;;;;;;2.03;0.70;;;22.30;42.30;;;;;;10411149;28;20545;-15
2021/05/06 16:06:51;;;;;;;1.17;0.57;;;22.20;42.50;;;;;;10411299;28;20273;-15
2021/05/06 16:12:13;;;;;;;2.37;1.00;;;22.00;42.70;;;;;;10410897;28;20221;-14
2021/05/06 16:17:34;;;;;;;1.50;0.60;;;22.00;42.80;;;;;;10410800;28;20240;-14
2021/05/06 16:22:57;;;;;;;0.90;0.60;;;22.20;42.70;;;;;;10441151;28;20279;-14
2021/05/06 16:28:18;;;;;;;1.60;0.73;;;22.20;42.30;;;;;;10451530;28;20560;-14
2021/05/06 16:33:41;;;;;;;2.70;0.93;;;22.00;42.60;;;;;;10451102;28;20276;-14
2021/05/06 16:39:13;;;;;;;0.80;0.70;;;22.00;42.60;;;;;;10450904;28;20284;-14
2021/05/06 16:44:34;;;;;;;2.27;0.70;;;22.10;42.60;;;;;;10450133;28;20232;-16
2021/05/06 16:49:56;;;;;;;1.13;0.67;;;22.00;42.50;;;;;;10450338;28;20192;-16
2021/05/06 16:55:18;;;;;;;1.13;0.67;;;21.90;42.80;;;;;;10450052;28;20224;-17
2021/05/06 17:00:41;;;;;;;1.57;0.60;;;22.00;42.90;;;;;;10421255;28;20190;-16
2021/05/06 17:06:03;;;;;;;1.37;0.97;;;22.10;42.60;;;;;;10406627;28;20716;-15
2021/05/06 17:11:26;;;;;;;0.87;0.70;;;21.90;42.80;;;;;;10407549;28;20555;-15
2021/05/06 17:16:47;;;;;;;1.83;0.60;;;21.90;43.00;;;;;;10408166;28;20469;-16
2021/05/06 17:22:09;;;;;;;0.97;0.50;;;21.90;43.20;;;;;;10427613;28;20714;-16
2021/05/06 17:27:31;;;;;;;0.80;0.50;;;22.00;43.20;;;;;;10449267;28;20201;-16
2021/05/06 17:37:54;;;;;;;1.10;0.53;;;22.00;43.10;;;;;;10492886;22;20228;-12
2021/05/06 17:43:17;;;;;;;0.60;0.50;;;21.90;43.30;;;;;;10481230;28;20213;-13
2021/05/06 17:48:38;;;;;;;0.90;0.63;;;22.00;43.20;;;;;;10453782;28;20201;-15
2021/05/06 17:54:00;;;;;;;1.43;0.80;;;22.10;43.00;;;;;;10460897;28;20223;-12
2021/05/06 17:59:23;;;;;;;1.33;0.70;;;22.10;42.80;;;;;;10462245;28;20615;-14
2021/05/06 18:04:45;;;;;;;1.23;0.57;;;22.00;42.90;;;;;;10474897;28;20212;-14
2021/05/06 18:10:10;;;;;;;0.60;0.50;;;22.00;43.10;;;;;;10494247;28;20203;-13
2021/05/06 18:15:32;;;;;;;2.07;0.80;;;21.90;43.00;;;;;;10452106;28;20606;-13
2021/05/06 18:20:54;;;;;;;0.47;0.47;;;22.20;43.00;;;;;;10433650;28;20197;-16
2021/05/06 18:26:18;;;;;;;0.97;0.60;;;22.40;42.30;;;;;;10424639;28;20566;-14
2021/05/06 18:31:42;;;;;;;1.80;0.53;;;22.50;42.30;;;;;;10460449;28;20224;-15
2021/05/06 18:37:04;;;;;;;2.10;0.80;;;22.60;42.30;;;;;;10451043;28;20366;-15
2021/05/06 18:42:25;;;;;;;1.77;0.70;;;22.70;42.20;;;;;;10450861;28;20204;-15
2021/05/06 18:47:48;;;;;;;1.30;0.63;;;22.60;42.50;;;;;;10450844;28;20416;-14
2021/05/06 18:53:10;;;;;;;6.27;0.83;;;22.90;42.00;;;;;;10450763;28;20231;-15
2021/05/06 18:58:31;;;;;;;0.73;0.47;;;22.80;42.10;;;;;;10450938;28;20200;-15
2021/05/06 19:03:54;;;;;;;2.33;0.50;;;22.80;42.70;;;;;;10451300;28;20228;-15
2021/05/06 19:09:15;;;;;;;1.00;0.60;;;22.80;42.70;;;;;;10480817;28;20204;-14
2021/05/06 19:14:37;;;;;;;1.13;0.47;;;22.90;42.60;;;;;;10470921;28;20597;-14
2021/05/06 19:19:59;;;;;;;0.60;0.60;;;22.80;42.60;;;;;;10429169;28;20681;-14
2021/05/06 19:25:21;;;;;;;2.07;0.57;;;22.90;42.20;;;;;;10445267;28;20225;-15
2021/05/06 19:30:43;;;;;;;0.80;0.50;;;23.30;41.40;;;;;;10458231;28;20205;-14
2021/05/06 19:36:06;;;;;;;1.07;0.40;;;23.70;40.60;;;;;;10458834;28;20274;-13
2021/05/06 19:41:30;;;;;;;1.10;0.63;;;24.00;40.00;;;;;;10458536;28;20204;-16
2021/05/06 19:47:05;;;;;;;1.07;0.50;;;24.30;39.60;;;;;;10455024;28;20355;-15
2021/05/06 19:52:29;;;;;;;0.53;0.37;;;24.30;39.70;;;;;;10456178;28;20205;-15
2021/05/06 19:57:50;;;;;;;0.63;0.47;;;24.30;39.50;;;;;;10457713;28;20220;-15
2021/05/06 20:03:12;;;;;;;0.90;0.57;;;24.20;39.70;;;;;;10458025;28;20564;-15
2021/05/06 20:08:35;;;;;;;0.80;0.50;;;24.20;39.80;;;;;;10458095;28;20197;-16
2021/05/06 20:13:56;;;;;;;1.97;0.50;;;24.20;39.90;;;;;;10457103;28;20223;-14
2021/05/06 20:19:18;;;;;;;0.50;0.40;;;24.30;39.80;;;;;;10455787;28;20197;-15
2021/05/06 20:24:41;;;;;;;1.07;0.50;;;24.40;39.50;;;;;;10420543;28;20214;-14
2021/05/06 20:30:03;;;;;;;0.57;0.40;;;24.20;39.60;;;;;;10413697;28;20197;-13
2021/05/06 20:35:24;;;;;;;4.53;0.43;;;23.70;40.50;;;;;;10427909;28;20704;-14
2021/05/06 20:40:47;;;;;;;0.40;0.40;;;23.20;41.40;;;;;;10450143;28;20190;-15
2021/05/06 20:46:09;;;;;;;1.03;0.40;;;23.00;42.10;;;;;;10456630;28;20208;-14
2021/05/06 20:51:31;;;;;;;0.87;0.70;;;22.80;42.50;;;;;;10456637;28;20204;-13
2021/05/06 20:56:54;;;;;;;0.70;0.50;;;22.70;42.80;;;;;;10446589;28;20296;-15
2021/05/06 21:02:18;;;;;;;0.43;0.40;;;22.50;42.90;;;;;;10454343;28;20193;-15
2021/05/06 21:07:42;;;;;;;0.93;0.53;;;22.50;43.00;;;;;;10456442;28;20213;-15
2021/05/06 21:13:04;;;;;;;1.00;0.43;;;22.40;43.40;;;;;;10455183;28;20285;-15
2021/05/06 21:18:26;;;;;;;0.50;0.50;;;22.30;44.00;;;;;;10447077;28;20216;-14
2021/05/06 21:23:48;;;;;;;1.40;0.70;;;22.30;43.50;;;;;;10448494;28;20213;-16
2021/05/06 21:29:11;;;;;;;1.23;0.90;;;22.40;43.10;;;;;;10455386;28;20622;-14
2021/05/06 21:34:33;;;;;;;0.40;0.37;;;22.20;43.30;;;;;;10454166;28;20228;-15
2021/05/06 21:39:54;;;;;;;1.60;0.80;;;22.10;43.50;;;;;;10448827;28;20691;-15
2021/05/06 21:45:17;;;;;;;0.53;0.50;;;22.20;43.50;;;;;;10438566;28;20205;-15
2021/05/06 21:50:38;;;;;;;1.10;0.87;;;22.20;43.20;;;;;;10449358;28;20205;-14
2021/05/06 21:56:00;;;;;;;1.20;0.63;;;22.30;43.30;;;;;;10453425;28;20224;-15
2021/05/06 22:01:23;;;;;;;0.57;0.50;;;22.30;43.30;;;;;;10453400;28;20208;-14
2021/05/06 22:06:44;;;;;;;0.63;0.47;;;22.10;43.50;;;;;;10452108;28;20209;-15
2021/05/06 22:12:06;;;;;;;0.80;0.70;;;22.10;43.50;;;;;;10453819;28;20212;-13
2021/05/06 22:17:29;;;;;;;1.77;0.50;;;22.10;43.70;;;;;;10453237;28;20231;-14
2021/05/06 22:22:51;;;;;;;0.93;0.60;;;22.00;43.80;;;;;;10446478;28;20928;-15
2021/05/06 22:28:13;;;;;;;1.00;0.53;;;22.00;43.90;;;;;;10470312;28;20626;-15
2021/05/06 22:33:38;;;;;;;1.67;0.60;;;21.90;44.00;;;;;;10493354;28;20212;-14
2021/05/06 22:39:00;;;;;;;1.07;0.60;;;21.90;44.00;;;;;;10493812;28;20267;-14
2021/05/06 22:44:21;;;;;;;0.60;0.60;;;21.90;44.50;;;;;;10494279;28;20208;-15
2021/05/06 22:49:44;;;;;;;0.40;0.40;;;22.00;43.80;;;;;;10474312;28;20324;-14
2021/05/06 22:55:07;;;;;;;0.90;0.60;;;21.90;44.00;;;;;;10417632;28;20222;-15
2021/05/06 23:00:30;;;;;;;1.40;0.60;;;22.00;44.00;;;;;;10451754;28;20200;-14
2021/05/06 23:05:53;;;;;;;0.47;0.40;;;22.00;43.90;;;;;;10451022;28;20217;-16
2021/05/06 23:11:15;;;;;;;1.17;0.67;;;22.00;43.60;;;;;;10451472;28;20200;-15
2021/05/06 23:16:37;;;;;;;1.00;0.50;;;21.90;43.90;;;;;;10451202;28;20224;-16
2021/05/06 23:21:59;;;;;;;0.90;0.53;;;22.00;44.00;;;;;;10451472;28;20197;-14
2021/05/06 23:27:21;;;;;;;0.50;0.50;;;21.90;44.00;;;;;;10451031;28;20223;-15
2021/05/06 23:32:42;;;;;;;0.60;0.60;;;21.90;44.10;;;;;;10442945;28;20216;-15
2021/05/06 23:38:05;;;;;;;0.60;0.60;;;21.90;44.00;;;;;;10555458;22;20233;-14
2021/05/06 23:43:27;;;;;;;1.53;0.60;;;21.90;43.90;;;;;;10575544;28;20674;-16
2021/05/06 23:48:48;;;;;;;0.83;0.60;;;22.00;43.90;;;;;;10530963;28;20220;-17
2021/05/06 23:54:11;;;;;;;0.87;0.50;;;22.00;43.90;;;;;;10534148;28;20212;-14
2021/05/06 23:59:33;;;;;;;0.60;0.60;;;21.90;43.90;;;;;;10495417;28;20199;-12
